sensor_id;sensor_type;location;lat;lon;timestamp;P1;durP1;ratioP1;P2;durP2;ratioP2
11931;SDS011;6025;51.368;6.788;2023-07-08T00:03:47;4.50;;;2.40;;
11931;SDS011;6025;51.368;6.788;2023-07-08T00:08:39;3.85;;;2.50;;
11931;SDS011;6025;51.368;6.788;2023-07-08T00:13:30;3.45;;;2.22;;
11931;SDS011;6025;51.368;6.788;2023-07-08T00:18:22;4.43;;;2.40;;
11931;SDS011;6025;51.368;6.788;2023-07-08T00:23:15;4.50;;;2.70;;
11931;SDS011;6025;51.368;6.788;2023-07-08T00:28:12;4.25;;;2.47;;
11931;SDS011;6025;51.368;6.788;2023-07-08T00:33:05;3.55;;;2.50;;
11931;SDS011;6025;51.368;6.788;2023-07-08T00:37:57;3.42;;;2.72;;
11931;SDS011;6025;51.368;6.788;2023-07-08T00:42:52;4.35;;;2.60;;
11931;SDS011;6025;51.368;6.788;2023-07-08T00:47:44;5.72;;;2.60;;
11931;SDS011;6025;51.368;6.788;2023-07-08T00:52:36;4.60;;;2.78;;
11931;SDS011;6025;51.368;6.788;2023-07-08T00:57:29;4.38;;;2.60;;
11931;SDS011;6025;51.368;6.788;2023-07-08T01:02:25;4.30;;;2.75;;
11931;SDS011;6025;51.368;6.788;2023-07-08T01:07:17;3.25;;;2.40;;
11931;SDS011;6025;51.368;6.788;2023-07-08T01:12:12;3.05;;;2.50;;
11931;SDS011;6025;51.368;6.788;2023-07-08T01:17:05;4.55;;;2.72;;
11931;SDS011;6025;51.368;6.788;2023-07-08T01:22:01;4.88;;;2.47;;
11931;SDS011;6025;51.368;6.788;2023-07-08T01:26:53;5.72;;;2.88;;
11931;SDS011;6025;51.368;6.788;2023-07-08T01:31:45;4.10;;;2.58;;
11931;SDS011;6025;51.368;6.788;2023-07-08T01:36:39;5.40;;;2.85;;
11931;SDS011;6025;51.368;6.788;2023-07-08T01:41:34;4.55;;;2.65;;
11931;SDS011;6025;51.368;6.788;2023-07-08T01:46:25;4.53;;;2.70;;
11931;SDS011;6025;51.368;6.788;2023-07-08T01:51:18;4.13;;;2.53;;
11931;SDS011;6025;51.368;6.788;2023-07-08T01:56:11;5.22;;;2.60;;
11931;SDS011;6025;51.368;6.788;2023-07-08T02:01:05;3.83;;;2.78;;
11931;SDS011;6025;51.368;6.788;2023-07-08T02:05:57;4.60;;;2.50;;
11931;SDS011;6025;51.368;6.788;2023-07-08T02:10:49;4.95;;;2.60;;
11931;SDS011;6025;51.368;6.788;2023-07-08T02:15:42;4.05;;;2.70;;
11931;SDS011;6025;51.368;6.788;2023-07-08T02:20:35;3.78;;;3.08;;
11931;SDS011;6025;51.368;6.788;2023-07-08T02:25:26;4.05;;;2.70;;
11931;SDS011;6025;51.368;6.788;2023-07-08T02:30:18;7.07;;;2.95;;
11931;SDS011;6025;51.368;6.788;2023-07-08T02:35:10;4.38;;;2.80;;
11931;SDS011;6025;51.368;6.788;2023-07-08T02:40:03;5.07;;;2.67;;
11931;SDS011;6025;51.368;6.788;2023-07-08T02:44:56;5.13;;;2.60;;
11931;SDS011;6025;51.368;6.788;2023-07-08T02:49:47;4.07;;;2.65;;
11931;SDS011;6025;51.368;6.788;2023-07-08T02:54:40;4.47;;;2.58;;
11931;SDS011;6025;51.368;6.788;2023-07-08T02:59:33;4.60;;;2.97;;
11931;SDS011;6025;51.368;6.788;2023-07-08T03:04:25;4.90;;;2.60;;
11931;SDS011;6025;51.368;6.788;2023-07-08T03:09:16;4.35;;;2.67;;
11931;SDS011;6025;51.368;6.788;2023-07-08T03:14:08;6.00;;;2.80;;
11931;SDS011;6025;51.368;6.788;2023-07-08T03:19:01;4.25;;;3.03;;
11931;SDS011;6025;51.368;6.788;2023-07-08T03:23:52;5.13;;;2.70;;
11931;SDS011;6025;51.368;6.788;2023-07-08T03:28:44;5.00;;;2.70;;
11931;SDS011;6025;51.368;6.788;2023-07-08T03:33:35;5.18;;;2.92;;
11931;SDS011;6025;51.368;6.788;2023-07-08T03:38:28;3.47;;;3.00;;
11931;SDS011;6025;51.368;6.788;2023-07-08T03:43:20;4.43;;;3.17;;
11931;SDS011;6025;51.368;6.788;2023-07-08T03:48:12;3.35;;;2.63;;
11931;SDS011;6025;51.368;6.788;2023-07-08T03:53:04;3.47;;;2.97;;
11931;SDS011;6025;51.368;6.788;2023-07-08T03:57:57;5.05;;;3.03;;
11931;SDS011;6025;51.368;6.788;2023-07-08T04:02:48;3.85;;;3.08;;
11931;SDS011;6025;51.368;6.788;2023-07-08T04:07:40;4.68;;;3.10;;
11931;SDS011;6025;51.368;6.788;2023-07-08T04:12:31;5.10;;;3.28;;
11931;SDS011;6025;51.368;6.788;2023-07-08T04:17:24;3.72;;;2.80;;
11931;SDS011;6025;51.368;6.788;2023-07-08T04:22:16;6.35;;;3.10;;
11931;SDS011;6025;51.368;6.788;2023-07-08T04:27:08;3.58;;;2.70;;
11931;SDS011;6025;51.368;6.788;2023-07-08T04:32:01;4.50;;;2.90;;
11931;SDS011;6025;51.368;6.788;2023-07-08T04:36:54;4.00;;;2.67;;
11931;SDS011;6025;51.368;6.788;2023-07-08T04:41:45;5.13;;;3.13;;
11931;SDS011;6025;51.368;6.788;2023-07-08T04:46:37;3.63;;;3.10;;
11931;SDS011;6025;51.368;6.788;2023-07-08T04:51:31;5.65;;;3.50;;
11931;SDS011;6025;51.368;6.788;2023-07-08T04:56:25;4.93;;;3.10;;
11931;SDS011;6025;51.368;6.788;2023-07-08T05:01:16;2.97;;;2.60;;
11931;SDS011;6025;51.368;6.788;2023-07-08T05:06:08;4.95;;;2.90;;
11931;SDS011;6025;51.368;6.788;2023-07-08T05:10:59;6.68;;;3.38;;
11931;SDS011;6025;51.368;6.788;2023-07-08T05:15:52;5.10;;;3.22;;
11931;SDS011;6025;51.368;6.788;2023-07-08T05:20:49;7.80;;;3.25;;
11931;SDS011;6025;51.368;6.788;2023-07-08T05:25:41;5.57;;;3.15;;
11931;SDS011;6025;51.368;6.788;2023-07-08T05:30:33;5.85;;;3.33;;
11931;SDS011;6025;51.368;6.788;2023-07-08T05:35:25;5.15;;;3.15;;
11931;SDS011;6025;51.368;6.788;2023-07-08T05:40:17;3.83;;;3.05;;
11931;SDS011;6025;51.368;6.788;2023-07-08T05:45:09;5.72;;;3.00;;
11931;SDS011;6025;51.368;6.788;2023-07-08T05:50:01;5.10;;;3.50;;
11931;SDS011;6025;51.368;6.788;2023-07-08T05:54:54;3.40;;;3.10;;
11931;SDS011;6025;51.368;6.788;2023-07-08T05:59:46;6.70;;;3.30;;
11931;SDS011;6025;51.368;6.788;2023-07-08T06:04:37;3.63;;;3.00;;
11931;SDS011;6025;51.368;6.788;2023-07-08T06:09:29;3.72;;;2.90;;
11931;SDS011;6025;51.368;6.788;2023-07-08T06:14:22;6.63;;;3.40;;
11931;SDS011;6025;51.368;6.788;2023-07-08T06:19:14;4.35;;;3.10;;
11931;SDS011;6025;51.368;6.788;2023-07-08T06:24:07;5.57;;;3.40;;
11931;SDS011;6025;51.368;6.788;2023-07-08T06:28:58;6.03;;;3.55;;
11931;SDS011;6025;51.368;6.788;2023-07-08T06:33:51;5.65;;;3.58;;
11931;SDS011;6025;51.368;6.788;2023-07-08T06:38:43;6.18;;;3.17;;
11931;SDS011;6025;51.368;6.788;2023-07-08T06:43:34;5.45;;;3.55;;
11931;SDS011;6025;51.368;6.788;2023-07-08T06:48:26;4.80;;;3.50;;
11931;SDS011;6025;51.368;6.788;2023-07-08T06:53:19;7.70;;;3.85;;
11931;SDS011;6025;51.368;6.788;2023-07-08T06:58:10;5.43;;;3.90;;
11931;SDS011;6025;51.368;6.788;2023-07-08T07:03:02;6.80;;;3.88;;
11931;SDS011;6025;51.368;6.788;2023-07-08T07:07:54;8.50;;;4.25;;
11931;SDS011;6025;51.368;6.788;2023-07-08T07:12:47;5.65;;;3.80;;
11931;SDS011;6025;51.368;6.788;2023-07-08T07:17:39;5.38;;;3.95;;
11931;SDS011;6025;51.368;6.788;2023-07-08T07:22:30;4.80;;;4.25;;
11931;SDS011;6025;51.368;6.788;2023-07-08T07:27:22;5.28;;;3.92;;
11931;SDS011;6025;51.368;6.788;2023-07-08T07:32:15;7.15;;;4.60;;
11931;SDS011;6025;51.368;6.788;2023-07-08T07:37:09;5.15;;;4.03;;
11931;SDS011;6025;51.368;6.788;2023-07-08T07:42:02;8.75;;;4.90;;
11931;SDS011;6025;51.368;6.788;2023-07-08T07:46:53;7.00;;;5.10;;
11931;SDS011;6025;51.368;6.788;2023-07-08T07:51:46;6.15;;;4.95;;
11931;SDS011;6025;51.368;6.788;2023-07-08T07:56:38;7.50;;;5.28;;
11931;SDS011;6025;51.368;6.788;2023-07-08T08:01:29;7.55;;;6.22;;
11931;SDS011;6025;51.368;6.788;2023-07-08T08:06:21;8.90;;;6.00;;
11931;SDS011;6025;51.368;6.788;2023-07-08T08:11:14;7.30;;;6.03;;
11931;SDS011;6025;51.368;6.788;2023-07-08T08:16:06;7.75;;;5.53;;
11931;SDS011;6025;51.368;6.788;2023-07-08T08:20:58;7.05;;;5.55;;
11931;SDS011;6025;51.368;6.788;2023-07-08T08:25:49;7.38;;;6.00;;
11931;SDS011;6025;51.368;6.788;2023-07-08T08:30:42;8.48;;;5.57;;
11931;SDS011;6025;51.368;6.788;2023-07-08T08:35:38;7.53;;;5.70;;
11931;SDS011;6025;51.368;6.788;2023-07-08T08:40:29;6.22;;;5.25;;
11931;SDS011;6025;51.368;6.788;2023-07-08T08:45:21;7.15;;;5.10;;
11931;SDS011;6025;51.368;6.788;2023-07-08T08:55:27;8.25;;;5.30;;
11931;SDS011;6025;51.368;6.788;2023-07-08T09:00:22;5.90;;;5.30;;
11931;SDS011;6025;51.368;6.788;2023-07-08T09:05:16;8.27;;;5.40;;
11931;SDS011;6025;51.368;6.788;2023-07-08T09:10:10;8.68;;;4.70;;
11931;SDS011;6025;51.368;6.788;2023-07-08T09:15:10;8.70;;;6.07;;
11931;SDS011;6025;51.368;6.788;2023-07-08T09:20:05;7.40;;;5.30;;
11931;SDS011;6025;51.368;6.788;2023-07-08T09:25:03;8.75;;;5.40;;
11931;SDS011;6025;51.368;6.788;2023-07-08T09:29:57;7.85;;;5.22;;
11931;SDS011;6025;51.368;6.788;2023-07-08T09:34:50;6.78;;;4.65;;
11931;SDS011;6025;51.368;6.788;2023-07-08T09:39:42;6.20;;;5.05;;
11931;SDS011;6025;51.368;6.788;2023-07-08T09:44:34;7.88;;;4.40;;
11931;SDS011;6025;51.368;6.788;2023-07-08T09:49:28;6.13;;;4.20;;
11931;SDS011;6025;51.368;6.788;2023-07-08T09:54:23;5.38;;;4.10;;
11931;SDS011;6025;51.368;6.788;2023-07-08T09:59:16;6.05;;;4.32;;
11931;SDS011;6025;51.368;6.788;2023-07-08T10:04:10;5.80;;;4.40;;
11931;SDS011;6025;51.368;6.788;2023-07-08T10:09:05;5.95;;;4.40;;
11931;SDS011;6025;51.368;6.788;2023-07-08T10:14:01;5.88;;;4.35;;
11931;SDS011;6025;51.368;6.788;2023-07-08T10:18:55;5.95;;;4.85;;
11931;SDS011;6025;51.368;6.788;2023-07-08T10:23:48;7.05;;;4.80;;
11931;SDS011;6025;51.368;6.788;2023-07-08T10:28:45;7.93;;;4.60;;
11931;SDS011;6025;51.368;6.788;2023-07-08T10:33:46;5.97;;;3.85;;
11931;SDS011;6025;51.368;6.788;2023-07-08T10:38:49;7.10;;;4.40;;
11931;SDS011;6025;51.368;6.788;2023-07-08T10:43:53;5.40;;;4.43;;
11931;SDS011;6025;51.368;6.788;2023-07-08T10:48:57;9.07;;;4.43;;
11931;SDS011;6025;51.368;6.788;2023-07-08T10:53:58;6.25;;;4.25;;
11931;SDS011;6025;51.368;6.788;2023-07-08T11:04:18;4.80;;;4.30;;
11931;SDS011;6025;51.368;6.788;2023-07-08T11:09:17;6.45;;;4.15;;
11931;SDS011;6025;51.368;6.788;2023-07-08T11:14:14;5.65;;;3.90;;
11931;SDS011;6025;51.368;6.788;2023-07-08T11:19:10;20.30;;;4.45;;
11931;SDS011;6025;51.368;6.788;2023-07-08T11:24:05;5.55;;;4.00;;
11931;SDS011;6025;51.368;6.788;2023-07-08T11:29:00;6.07;;;4.10;;
11931;SDS011;6025;51.368;6.788;2023-07-08T11:33:52;5.13;;;4.28;;
11931;SDS011;6025;51.368;6.788;2023-07-08T11:38:48;6.60;;;4.05;;
11931;SDS011;6025;51.368;6.788;2023-07-08T11:43:42;6.28;;;3.80;;
11931;SDS011;6025;51.368;6.788;2023-07-08T11:48:37;8.02;;;4.07;;
11931;SDS011;6025;51.368;6.788;2023-07-08T11:53:31;5.32;;;4.18;;
11931;SDS011;6025;51.368;6.788;2023-07-08T11:58:27;5.00;;;3.50;;
11931;SDS011;6025;51.368;6.788;2023-07-08T12:03:21;5.07;;;3.72;;
11931;SDS011;6025;51.368;6.788;2023-07-08T12:08:14;4.40;;;3.75;;
11931;SDS011;6025;51.368;6.788;2023-07-08T12:13:08;5.90;;;3.70;;
11931;SDS011;6025;51.368;6.788;2023-07-08T12:18:05;6.88;;;4.00;;
11931;SDS011;6025;51.368;6.788;2023-07-08T12:23:03;5.93;;;4.13;;
11931;SDS011;6025;51.368;6.788;2023-07-08T12:28:01;6.75;;;3.70;;
11931;SDS011;6025;51.368;6.788;2023-07-08T12:32:53;7.07;;;3.83;;
11931;SDS011;6025;51.368;6.788;2023-07-08T12:37:46;4.15;;;3.63;;
11931;SDS011;6025;51.368;6.788;2023-07-08T12:42:38;4.55;;;3.88;;
11931;SDS011;6025;51.368;6.788;2023-07-08T12:47:29;4.07;;;3.50;;
11931;SDS011;6025;51.368;6.788;2023-07-08T12:52:21;4.15;;;3.60;;
11931;SDS011;6025;51.368;6.788;2023-07-08T12:57:15;4.72;;;3.55;;
11931;SDS011;6025;51.368;6.788;2023-07-08T13:02:09;4.05;;;3.30;;
11931;SDS011;6025;51.368;6.788;2023-07-08T13:07:06;4.57;;;3.33;;
11931;SDS011;6025;51.368;6.788;2023-07-08T13:11:59;5.43;;;3.45;;
11931;SDS011;6025;51.368;6.788;2023-07-08T13:16:56;4.25;;;3.20;;
11931;SDS011;6025;51.368;6.788;2023-07-08T13:21:47;4.47;;;3.70;;
11931;SDS011;6025;51.368;6.788;2023-07-08T13:26:39;4.35;;;3.42;;
11931;SDS011;6025;51.368;6.788;2023-07-08T13:31:37;3.85;;;3.45;;
11931;SDS011;6025;51.368;6.788;2023-07-08T13:36:33;4.72;;;3.45;;
11931;SDS011;6025;51.368;6.788;2023-07-08T13:41:26;4.57;;;3.47;;
11931;SDS011;6025;51.368;6.788;2023-07-08T13:46:30;6.32;;;3.45;;
11931;SDS011;6025;51.368;6.788;2023-07-08T13:51:24;4.68;;;3.58;;
11931;SDS011;6025;51.368;6.788;2023-07-08T13:56:22;5.10;;;3.42;;
11931;SDS011;6025;51.368;6.788;2023-07-08T14:01:17;5.13;;;3.50;;
11931;SDS011;6025;51.368;6.788;2023-07-08T14:06:12;4.57;;;2.95;;
11931;SDS011;6025;51.368;6.788;2023-07-08T14:11:05;5.85;;;3.17;;
11931;SDS011;6025;51.368;6.788;2023-07-08T14:15:58;4.82;;;3.30;;
11931;SDS011;6025;51.368;6.788;2023-07-08T14:20:50;4.22;;;3.10;;
11931;SDS011;6025;51.368;6.788;2023-07-08T14:25:42;5.25;;;3.20;;
11931;SDS011;6025;51.368;6.788;2023-07-08T14:30:34;5.95;;;3.75;;
11931;SDS011;6025;51.368;6.788;2023-07-08T14:35:31;4.85;;;3.70;;
11931;SDS011;6025;51.368;6.788;2023-07-08T14:40:24;5.15;;;3.50;;
11931;SDS011;6025;51.368;6.788;2023-07-08T14:45:17;7.28;;;3.60;;
11931;SDS011;6025;51.368;6.788;2023-07-08T14:50:12;4.70;;;3.20;;
11931;SDS011;6025;51.368;6.788;2023-07-08T14:55:07;6.25;;;3.50;;
11931;SDS011;6025;51.368;6.788;2023-07-08T14:59:59;5.90;;;3.85;;
11931;SDS011;6025;51.368;6.788;2023-07-08T15:04:51;3.95;;;3.30;;
11931;SDS011;6025;51.368;6.788;2023-07-08T15:09:43;4.75;;;3.67;;
11931;SDS011;6025;51.368;6.788;2023-07-08T15:14:36;4.68;;;3.50;;
11931;SDS011;6025;51.368;6.788;2023-07-08T15:19:28;5.57;;;3.88;;
11931;SDS011;6025;51.368;6.788;2023-07-08T15:24:22;5.18;;;3.42;;
11931;SDS011;6025;51.368;6.788;2023-07-08T15:29:15;4.28;;;3.58;;
11931;SDS011;6025;51.368;6.788;2023-07-08T15:34:09;5.45;;;3.60;;
11931;SDS011;6025;51.368;6.788;2023-07-08T15:39:03;4.80;;;3.75;;
11931;SDS011;6025;51.368;6.788;2023-07-08T15:43:54;5.43;;;3.78;;
11931;SDS011;6025;51.368;6.788;2023-07-08T15:48:47;6.38;;;4.00;;
11931;SDS011;6025;51.368;6.788;2023-07-08T15:53:40;7.72;;;4.38;;
11931;SDS011;6025;51.368;6.788;2023-07-08T15:58:32;4.80;;;4.10;;
11931;SDS011;6025;51.368;6.788;2023-07-08T16:03:25;6.47;;;3.88;;
11931;SDS011;6025;51.368;6.788;2023-07-08T16:08:17;8.50;;;4.10;;
11931;SDS011;6025;51.368;6.788;2023-07-08T16:13:10;8.60;;;3.95;;
11931;SDS011;6025;51.368;6.788;2023-07-08T16:18:02;6.43;;;4.03;;
11931;SDS011;6025;51.368;6.788;2023-07-08T16:22:54;5.93;;;3.78;;
11931;SDS011;6025;51.368;6.788;2023-07-08T16:27:46;6.15;;;4.00;;
11931;SDS011;6025;51.368;6.788;2023-07-08T16:32:40;5.43;;;3.72;;
11931;SDS011;6025;51.368;6.788;2023-07-08T16:37:32;5.82;;;4.20;;
11931;SDS011;6025;51.368;6.788;2023-07-08T16:42:23;7.63;;;4.18;;
11931;SDS011;6025;51.368;6.788;2023-07-08T16:47:15;5.00;;;4.20;;
11931;SDS011;6025;51.368;6.788;2023-07-08T16:52:09;5.63;;;4.20;;
11931;SDS011;6025;51.368;6.788;2023-07-08T16:57:03;8.27;;;3.92;;
11931;SDS011;6025;51.368;6.788;2023-07-08T17:01:56;6.18;;;4.30;;
11931;SDS011;6025;51.368;6.788;2023-07-08T17:06:47;4.30;;;3.90;;
11931;SDS011;6025;51.368;6.788;2023-07-08T17:11:40;7.70;;;4.30;;
11931;SDS011;6025;51.368;6.788;2023-07-08T17:16:32;6.70;;;3.90;;
11931;SDS011;6025;51.368;6.788;2023-07-08T17:21:24;5.53;;;4.18;;
11931;SDS011;6025;51.368;6.788;2023-07-08T17:26:16;6.75;;;4.10;;
11931;SDS011;6025;51.368;6.788;2023-07-08T17:31:11;8.40;;;4.30;;
11931;SDS011;6025;51.368;6.788;2023-07-08T17:36:08;7.18;;;4.60;;
11931;SDS011;6025;51.368;6.788;2023-07-08T17:41:00;5.10;;;4.28;;
11931;SDS011;6025;51.368;6.788;2023-07-08T17:45:51;8.40;;;4.30;;
11931;SDS011;6025;51.368;6.788;2023-07-08T17:50:44;9.80;;;4.65;;
11931;SDS011;6025;51.368;6.788;2023-07-08T17:55:36;8.50;;;4.15;;
11931;SDS011;6025;51.368;6.788;2023-07-08T18:00:28;7.15;;;4.50;;
11931;SDS011;6025;51.368;6.788;2023-07-08T18:05:20;5.53;;;4.40;;
11931;SDS011;6025;51.368;6.788;2023-07-08T18:10:15;6.47;;;4.45;;
11931;SDS011;6025;51.368;6.788;2023-07-08T18:15:14;6.38;;;4.53;;
11931;SDS011;6025;51.368;6.788;2023-07-08T18:20:08;9.95;;;4.30;;
11931;SDS011;6025;51.368;6.788;2023-07-08T18:25:00;8.10;;;4.60;;
11931;SDS011;6025;51.368;6.788;2023-07-08T18:29:53;5.40;;;4.28;;
11931;SDS011;6025;51.368;6.788;2023-07-08T18:34:45;7.05;;;4.80;;
11931;SDS011;6025;51.368;6.788;2023-07-08T18:39:36;6.15;;;4.75;;
11931;SDS011;6025;51.368;6.788;2023-07-08T18:44:30;6.50;;;4.30;;
11931;SDS011;6025;51.368;6.788;2023-07-08T18:49:26;9.85;;;4.82;;
11931;SDS011;6025;51.368;6.788;2023-07-08T18:54:20;6.32;;;5.20;;
11931;SDS011;6025;51.368;6.788;2023-07-08T18:59:12;9.98;;;5.47;;
11931;SDS011;6025;51.368;6.788;2023-07-08T19:04:04;7.45;;;5.25;;
11931;SDS011;6025;51.368;6.788;2023-07-08T19:08:57;7.70;;;4.40;;
11931;SDS011;6025;51.368;6.788;2023-07-08T19:13:48;7.57;;;4.72;;
11931;SDS011;6025;51.368;6.788;2023-07-08T19:18:40;9.45;;;5.28;;
11931;SDS011;6025;51.368;6.788;2023-07-08T19:23:32;7.75;;;5.25;;
11931;SDS011;6025;51.368;6.788;2023-07-08T19:28:25;7.78;;;5.30;;
11931;SDS011;6025;51.368;6.788;2023-07-08T19:33:16;6.55;;;5.07;;
11931;SDS011;6025;51.368;6.788;2023-07-08T19:38:08;9.82;;;5.03;;
11931;SDS011;6025;51.368;6.788;2023-07-08T19:43:01;7.93;;;4.60;;
11931;SDS011;6025;51.368;6.788;2023-07-08T19:47:55;8.52;;;4.78;;
11931;SDS011;6025;51.368;6.788;2023-07-08T19:52:47;6.40;;;4.93;;
11931;SDS011;6025;51.368;6.788;2023-07-08T19:57:40;8.02;;;4.97;;
11931;SDS011;6025;51.368;6.788;2023-07-08T20:02:33;8.38;;;5.00;;
11931;SDS011;6025;51.368;6.788;2023-07-08T20:07:26;8.70;;;4.97;;
11931;SDS011;6025;51.368;6.788;2023-07-08T20:12:17;9.82;;;5.03;;
11931;SDS011;6025;51.368;6.788;2023-07-08T20:17:09;6.75;;;4.68;;
11931;SDS011;6025;51.368;6.788;2023-07-08T20:22:03;7.40;;;5.13;;
11931;SDS011;6025;51.368;6.788;2023-07-08T20:26:56;6.55;;;4.53;;
11931;SDS011;6025;51.368;6.788;2023-07-08T20:31:48;7.70;;;4.75;;
11931;SDS011;6025;51.368;6.788;2023-07-08T20:36:39;8.43;;;5.18;;
11931;SDS011;6025;51.368;6.788;2023-07-08T20:41:31;7.65;;;5.10;;
11931;SDS011;6025;51.368;6.788;2023-07-08T20:46:24;8.05;;;5.10;;
11931;SDS011;6025;51.368;6.788;2023-07-08T20:51:17;6.65;;;4.85;;
11931;SDS011;6025;51.368;6.788;2023-07-08T20:56:11;8.55;;;5.20;;
11931;SDS011;6025;51.368;6.788;2023-07-08T21:01:05;7.68;;;5.13;;
11931;SDS011;6025;51.368;6.788;2023-07-08T21:05:58;10.60;;;4.80;;
11931;SDS011;6025;51.368;6.788;2023-07-08T21:10:50;6.13;;;4.88;;
11931;SDS011;6025;51.368;6.788;2023-07-08T21:15:43;8.38;;;4.30;;
11931;SDS011;6025;51.368;6.788;2023-07-08T21:20:35;8.48;;;4.40;;
11931;SDS011;6025;51.368;6.788;2023-07-08T21:25:27;5.80;;;3.97;;
11931;SDS011;6025;51.368;6.788;2023-07-08T21:30:20;6.35;;;4.07;;
11931;SDS011;6025;51.368;6.788;2023-07-08T21:35:13;6.95;;;4.47;;
11931;SDS011;6025;51.368;6.788;2023-07-08T21:40:08;5.50;;;3.90;;
11931;SDS011;6025;51.368;6.788;2023-07-08T21:45:04;5.93;;;3.88;;
11931;SDS011;6025;51.368;6.788;2023-07-08T21:50:06;7.00;;;3.60;;
11931;SDS011;6025;51.368;6.788;2023-07-08T21:54:58;7.57;;;4.15;;
11931;SDS011;6025;51.368;6.788;2023-07-08T21:59:49;5.18;;;3.88;;
11931;SDS011;6025;51.368;6.788;2023-07-08T22:04:42;7.68;;;4.00;;
11931;SDS011;6025;51.368;6.788;2023-07-08T22:09:33;7.65;;;4.05;;
11931;SDS011;6025;51.368;6.788;2023-07-08T22:14:25;6.13;;;3.95;;
11931;SDS011;6025;51.368;6.788;2023-07-08T22:19:16;5.95;;;3.97;;
11931;SDS011;6025;51.368;6.788;2023-07-08T22:24:09;6.10;;;4.40;;
11931;SDS011;6025;51.368;6.788;2023-07-08T22:29:01;6.38;;;4.18;;
11931;SDS011;6025;51.368;6.788;2023-07-08T22:33:53;5.63;;;4.20;;
11931;SDS011;6025;51.368;6.788;2023-07-08T22:38:45;6.75;;;4.00;;
11931;SDS011;6025;51.368;6.788;2023-07-08T22:43:38;5.20;;;3.72;;
11931;SDS011;6025;51.368;6.788;2023-07-08T22:48:30;6.68;;;4.38;;
11931;SDS011;6025;51.368;6.788;2023-07-08T22:53:22;4.88;;;3.88;;
11931;SDS011;6025;51.368;6.788;2023-07-08T22:58:16;6.53;;;4.05;;
11931;SDS011;6025;51.368;6.788;2023-07-08T23:03:11;7.43;;;4.22;;
11931;SDS011;6025;51.368;6.788;2023-07-08T23:08:03;7.68;;;4.22;;
11931;SDS011;6025;51.368;6.788;2023-07-08T23:12:54;5.60;;;4.18;;
11931;SDS011;6025;51.368;6.788;2023-07-08T23:17:46;6.32;;;4.47;;
11931;SDS011;6025;51.368;6.788;2023-07-08T23:22:39;7.60;;;4.43;;
11931;SDS011;6025;51.368;6.788;2023-07-08T23:27:30;6.50;;;4.35;;
11931;SDS011;6025;51.368;6.788;2023-07-08T23:32:22;6.13;;;3.75;;
11931;SDS011;6025;51.368;6.788;2023-07-08T23:37:14;7.45;;;4.10;;
11931;SDS011;6025;51.368;6.788;2023-07-08T23:42:09;9.20;;;4.30;;
11931;SDS011;6025;51.368;6.788;2023-07-08T23:47:04;6.40;;;4.45;;
11931;SDS011;6025;51.368;6.788;2023-07-08T23:51:57;5.85;;;4.32;;
11931;SDS011;6025;51.368;6.788;2023-07-08T23:56:49;7.75;;;4.20;;
